createdAt,value
2018-08-17T00:01:25.091Z,100983.61
2018-08-17T00:03:52.625Z,100978.78
2018-08-17T00:06:21.453Z,100979.13
2018-08-17T00:08:48.095Z,100978.45
2018-08-17T00:11:14.737Z,100979.13
2018-08-17T00:13:42.188Z,100975.78
2018-08-17T00:16:08.852Z,100974.08
2018-08-17T00:18:35.516Z,100975.78
2018-08-17T00:21:02.164Z,100970.09
2018-08-17T00:23:28.809Z,100972.75
2018-08-17T00:25:55.456Z,100971.91
2018-08-17T00:28:22.133Z,100969.41
2018-08-17T00:30:49.740Z,100969.08
2018-08-17T00:33:16.409Z,100971.73
2018-08-17T00:35:44.086Z,100967.74
2018-08-17T00:38:11.976Z,100969.86
2018-08-17T00:40:39.614Z,100967.33
2018-08-17T00:43:06.261Z,100966.36
2018-08-17T00:45:33.876Z,100967.20
2018-08-17T00:48:01.544Z,100969.02
2018-08-17T00:50:29.161Z,100969.64
2018-08-17T00:52:56.857Z,100971.97
2018-08-17T00:55:23.482Z,100970.14
2018-08-17T00:57:51.298Z,100972.31
2018-08-17T01:00:17.942Z,100972.31
2018-08-17T01:02:45.488Z,100966.98
2018-08-17T01:05:12.139Z,100974.97
2018-08-17T01:07:40.828Z,100968.14
2018-08-17T01:10:08.452Z,100969.81
2018-08-17T01:12:35.100Z,100969.09
2018-08-17T01:15:01.746Z,100971.14
2018-08-17T01:17:29.461Z,100970.30
2018-08-17T01:19:57.073Z,100972.47
2018-08-17T01:22:24.657Z,100968.14
2018-08-17T01:24:52.293Z,100968.27
2018-08-17T01:27:19.909Z,100969.26
2018-08-17T01:29:46.578Z,100966.44
2018-08-17T01:32:13.274Z,100966.09
2018-08-17T01:34:41.012Z,100966.25
2018-08-17T01:37:08.612Z,100972.26
2018-08-17T01:39:36.382Z,100962.42
2018-08-17T01:42:04.008Z,100962.27
2018-08-17T01:44:31.621Z,100962.89
2018-08-17T01:46:59.196Z,100964.59
2018-08-17T01:49:26.840Z,100967.75
2018-08-17T01:51:53.489Z,100969.70
2018-08-17T01:54:21.080Z,100966.55
2018-08-17T01:56:47.717Z,100959.83
2018-08-17T01:59:14.381Z,100958.77
2018-08-17T02:01:41.897Z,100954.73
2018-08-17T02:04:08.564Z,100952.56
2018-08-17T02:06:36.096Z,100953.19
2018-08-17T02:09:02.901Z,100955.22
2018-08-17T02:11:30.546Z,100949.06
2018-08-17T02:13:58.050Z,100953.73
2018-08-17T02:16:25.646Z,100949.89
2018-08-17T02:18:54.672Z,100949.34
2018-08-17T02:21:21.331Z,100944.36
2018-08-17T02:23:48.013Z,100943.38
2018-08-17T02:26:15.441Z,100936.88
2018-08-17T02:28:43.014Z,100941.86
2018-08-17T02:31:11.788Z,100944.52
2018-08-17T02:33:39.279Z,100936.05
2018-08-17T02:36:05.933Z,100939.36
2018-08-17T02:38:33.413Z,100939.36
2018-08-17T02:41:01.010Z,100938.05
2018-08-17T02:43:28.642Z,100934.03
2018-08-17T02:45:56.215Z,100932.39
2018-08-17T02:48:23.832Z,100935.55
2018-08-17T02:50:50.554Z,100939.82
2018-08-17T02:53:18.001Z,100932.70
2018-08-17T02:55:45.613Z,100940.81
2018-08-17T02:58:12.261Z,100940.14
2018-08-17T03:00:38.909Z,100940.81
2018-08-17T03:03:06.537Z,100946.02
2018-08-17T03:05:33.196Z,100938.66
2018-08-17T03:08:00.764Z,100937.53
2018-08-17T03:10:28.466Z,100938.81
2018-08-17T03:12:56.149Z,100932.88
2018-08-17T03:15:23.706Z,100936.05
2018-08-17T03:17:51.224Z,100933.33
2018-08-17T03:20:18.737Z,100935.70
2018-08-17T03:22:45.373Z,100932.05
2018-08-17T03:25:12.016Z,100933.59
2018-08-17T03:27:38.660Z,100937.92
2018-08-17T03:30:05.350Z,100932.83
2018-08-17T03:32:31.989Z,100931.22
2018-08-17T03:34:58.632Z,100934.03
2018-08-17T03:37:26.628Z,100944.68
2018-08-17T03:39:54.025Z,100933.38
2018-08-17T03:42:22.202Z,100936.88
2018-08-17T03:44:48.884Z,100944.23
2018-08-17T03:47:16.514Z,100938.59
2018-08-17T03:49:44.217Z,100942.59
2018-08-17T03:52:11.868Z,100948.23
2018-08-17T03:54:38.513Z,100947.58
2018-08-17T03:57:05.162Z,100945.25
2018-08-17T03:59:31.810Z,100947.36
2018-08-17T04:01:58.603Z,100942.58
2018-08-17T04:04:26.172Z,100944.17
2018-08-17T04:06:53.560Z,100937.25
2018-08-17T04:09:20.207Z,100937.61
2018-08-17T04:11:46.861Z,100939.78
2018-08-17T04:14:13.513Z,100942.02
2018-08-17T04:16:40.501Z,100944.52
2018-08-17T04:19:07.136Z,100940.32
2018-08-17T04:21:33.821Z,100949.30
2018-08-17T04:24:01.397Z,100955.13
2018-08-17T04:26:29.044Z,100952.09
2018-08-17T04:28:55.723Z,100957.09
2018-08-17T04:31:24.732Z,100955.75
2018-08-17T04:33:51.367Z,100955.21
2018-08-17T04:36:18.520Z,100955.88
2018-08-17T04:38:45.345Z,100952.38
2018-08-17T04:41:12.160Z,100959.37
2018-08-17T04:43:40.567Z,100956.59
2018-08-17T04:46:08.353Z,100953.88
2018-08-17T04:48:35.597Z,100956.72
2018-08-17T04:51:02.272Z,100956.95
2018-08-17T04:53:29.909Z,100956.09
2018-08-17T04:55:56.580Z,100950.56
2018-08-17T04:58:26.052Z,100949.23
2018-08-17T05:00:53.673Z,100950.38
2018-08-17T05:03:20.369Z,100950.72
2018-08-17T05:05:47.500Z,100950.72
2018-08-17T05:08:15.048Z,100951.39
2018-08-17T05:10:41.741Z,100952.72
2018-08-17T05:13:09.365Z,100955.05
2018-08-17T05:15:36.976Z,100955.88
2018-08-17T05:18:04.681Z,100954.42
2018-08-17T05:20:32.259Z,100952.09
2018-08-17T05:22:59.828Z,100952.26
2018-08-17T05:25:27.565Z,100956.09
2018-08-17T05:27:54.354Z,100955.13
2018-08-17T05:30:21.016Z,100955.67
2018-08-17T05:32:47.664Z,100960.66
2018-08-17T05:35:14.331Z,100959.45
2018-08-17T05:37:42.305Z,100964.45
2018-08-17T05:40:09.828Z,100968.08
2018-08-17T05:42:38.280Z,100966.28
2018-08-17T05:45:06.301Z,100962.95
2018-08-17T05:47:34.009Z,100973.14
2018-08-17T05:50:01.507Z,100977.27
2018-08-17T05:52:29.113Z,100973.40
2018-08-17T05:54:56.745Z,100972.77
2018-08-17T05:57:24.317Z,100971.44
2018-08-17T05:59:50.981Z,100969.61
2018-08-17T06:02:17.729Z,100973.61
2018-08-17T06:04:44.360Z,100969.98
2018-08-17T06:07:11.988Z,100970.32
2018-08-17T06:09:38.717Z,100975.64
2018-08-17T06:12:05.376Z,100968.98
2018-08-17T06:14:32.028Z,100979.97
2018-08-17T06:16:58.661Z,100975.98
2018-08-17T06:19:25.309Z,100975.98
2018-08-17T06:21:52.693Z,100969.82
2018-08-17T06:24:20.237Z,100970.32
2018-08-17T06:26:46.938Z,100969.33
2018-08-17T06:29:13.584Z,100971.98
2018-08-17T06:31:42.541Z,100973.32
2018-08-17T06:34:11.160Z,100970.66
2018-08-17T06:36:37.832Z,100970.32
2018-08-17T06:39:06.570Z,100970.32
2018-08-17T06:41:34.412Z,100969.48
2018-08-17T06:44:01.071Z,100972.14
2018-08-17T06:46:27.714Z,100971.48
2018-08-17T06:48:54.634Z,100969.66
2018-08-17T06:51:24.620Z,100972.70
2018-08-17T06:53:51.580Z,100972.70
2018-08-17T06:56:18.310Z,100969.82
2018-08-17T06:58:45.017Z,100972.83
2018-08-17T07:01:15.545Z,100967.66
2018-08-17T07:03:43.273Z,100967.81
2018-08-17T07:06:10.932Z,100968.98
2018-08-17T07:08:37.699Z,100976.81
2018-08-17T07:11:05.306Z,100974.53
2018-08-17T07:13:31.994Z,100974.53
2018-08-17T07:16:19.017Z,100975.69
2018-08-17T07:18:54.190Z,100970.16
2018-08-17T07:21:20.941Z,100974.89
2018-08-17T07:23:48.574Z,100969.61
2018-08-17T07:26:23.469Z,100966.82
2018-08-17T07:28:50.204Z,100962.95
2018-08-17T07:31:18.223Z,100966.48
2018-08-17T07:33:46.190Z,100964.53
2018-08-17T07:36:13.695Z,100964.58
2018-08-17T07:38:45.083Z,100962.83
2018-08-17T07:41:13.877Z,100971.23
2018-08-17T07:43:43.802Z,100969.20
2018-08-17T07:46:19.050Z,100973.40
2018-08-17T07:48:47.695Z,100974.52
2018-08-17T07:51:15.819Z,100968.36
2018-08-17T07:53:43.458Z,100971.86
2018-08-17T07:56:11.336Z,100973.89
2018-08-17T07:58:44.733Z,100976.43
2018-08-17T08:01:11.606Z,100969.56
2018-08-17T08:03:39.549Z,100971.36
2018-08-17T08:06:07.662Z,100978.00
2018-08-17T08:08:34.498Z,100975.03
2018-08-17T08:11:02.367Z,100972.42
2018-08-17T08:13:30.393Z,100976.57
2018-08-17T08:15:58.499Z,100976.37
2018-08-17T08:18:26.641Z,100974.70
2018-08-17T08:20:53.728Z,100970.16
2018-08-17T08:23:22.302Z,100968.48
2018-08-17T08:25:49.976Z,100977.97
2018-08-17T08:28:16.662Z,100974.27
2018-08-17T08:30:46.645Z,100973.61
2018-08-17T08:33:13.337Z,100977.77
2018-08-17T08:35:40.686Z,100971.94
2018-08-17T08:38:08.299Z,100976.27
2018-08-17T08:40:35.069Z,100977.60
2018-08-17T08:43:01.743Z,100981.26
2018-08-17T08:45:30.352Z,100975.09
2018-08-17T08:47:56.992Z,100981.05
2018-08-17T08:50:23.645Z,100984.42
2018-08-17T08:52:50.457Z,100971.23
2018-08-17T08:55:18.262Z,100974.73
2018-08-17T08:57:45.013Z,100970.52
2018-08-17T09:00:13.061Z,100970.40
2018-08-17T09:02:41.426Z,100975.36
2018-08-17T09:05:08.313Z,100977.55
2018-08-17T09:07:35.129Z,100973.89
2018-08-17T09:10:03.297Z,100969.90
2018-08-17T09:12:29.960Z,100970.40
2018-08-17T09:14:57.597Z,100969.27
2018-08-17T09:17:24.412Z,100978.26
2018-08-17T09:19:52.756Z,100974.11
2018-08-17T09:22:19.413Z,100973.27
2018-08-17T09:24:46.105Z,100971.60
2018-08-17T09:27:13.578Z,100965.41
2018-08-17T09:29:41.493Z,100964.08
2018-08-17T09:32:08.145Z,100957.58
2018-08-17T09:34:34.812Z,100959.37
2018-08-17T09:37:01.528Z,100954.42
2018-08-17T09:39:29.260Z,100961.58
2018-08-17T09:41:56.119Z,100961.08
2018-08-17T09:44:23.955Z,100956.95
2018-08-17T09:46:50.691Z,100955.67
2018-08-17T09:49:17.357Z,100952.56
2018-08-17T09:51:44.005Z,100950.48
2018-08-17T09:54:11.504Z,100949.25
2018-08-17T09:56:38.381Z,100954.83
2018-08-17T09:59:06.421Z,100955.87
2018-08-17T10:01:38.825Z,100953.91
2018-08-17T10:04:11.304Z,100947.88
2018-08-17T10:06:43.882Z,100949.17
2018-08-17T10:09:17.944Z,100948.20
2018-08-17T10:11:44.617Z,100948.50
2018-08-17T10:14:12.194Z,100943.21
2018-08-17T10:16:38.860Z,100943.02
2018-08-17T10:19:05.505Z,100941.84
2018-08-17T10:21:33.032Z,100939.47
2018-08-17T10:24:00.461Z,100946.50
2018-08-17T10:26:27.120Z,100940.30
2018-08-17T10:28:55.189Z,100940.27
2018-08-17T10:31:22.333Z,100936.59
2018-08-17T10:33:49.658Z,100934.10
2018-08-17T10:36:17.302Z,100930.94
2018-08-17T10:38:43.948Z,100928.27
2018-08-17T10:41:11.894Z,100932.44
2018-08-17T10:43:38.964Z,100926.73
2018-08-17T10:46:05.620Z,100925.23
2018-08-17T10:48:33.277Z,100920.61
2018-08-17T10:50:59.968Z,100921.41
2018-08-17T10:53:36.212Z,100925.90
2018-08-17T10:56:02.903Z,100917.57
2018-08-17T10:58:32.642Z,100914.91
2018-08-17T11:00:59.321Z,100914.95
2018-08-17T11:03:25.968Z,100913.62
2018-08-17T11:05:53.717Z,100918.58
2018-08-17T11:08:20.354Z,100909.42
2018-08-17T11:10:47.072Z,100910.91
2018-08-17T11:13:13.712Z,100913.91
2018-08-17T11:15:41.574Z,100906.09
2018-08-17T11:18:08.228Z,100908.42
2018-08-17T11:20:35.848Z,100897.09
2018-08-17T11:23:03.449Z,100909.75
2018-08-17T11:25:30.096Z,100910.25
2018-08-17T11:27:57.692Z,100904.59
2018-08-17T11:30:25.302Z,100911.25
2018-08-17T11:32:53.313Z,100908.37
2018-08-17T11:35:20.969Z,100910.91
2018-08-17T11:37:47.617Z,100911.05
2018-08-17T11:40:15.131Z,100907.09
2018-08-17T11:42:47.569Z,100903.59
2018-08-17T11:45:30.402Z,100903.05
2018-08-17T11:47:57.884Z,100899.14
2018-08-17T11:50:26.116Z,100899.38
2018-08-17T11:52:54.297Z,100902.72
2018-08-17T11:55:22.504Z,100891.90
2018-08-17T11:57:49.413Z,100895.77
2018-08-17T12:00:16.157Z,100896.27
2018-08-17T12:02:44.056Z,100897.59
2018-08-17T12:05:11.580Z,100892.77
2018-08-17T12:07:39.957Z,100894.09
2018-08-17T12:10:06.624Z,100893.94
2018-08-17T12:12:34.641Z,100890.57
2018-08-17T12:15:03.274Z,100891.56
2018-08-17T12:17:30.145Z,100892.77
2018-08-17T12:19:56.808Z,100890.44
2018-08-17T12:22:23.502Z,100890.94
2018-08-17T12:24:50.999Z,100888.61
2018-08-17T12:27:18.468Z,100889.11
2018-08-17T12:29:45.139Z,100886.11
2018-08-17T12:32:13.972Z,100878.95
2018-08-17T12:34:41.397Z,100881.57
2018-08-17T12:37:08.077Z,100880.41
2018-08-17T12:39:34.730Z,100878.78
2018-08-17T12:42:01.568Z,100870.95
2018-08-17T12:44:29.074Z,100871.09
2018-08-17T12:46:55.758Z,100869.76
2018-08-17T12:49:25.360Z,100869.26
2018-08-17T12:51:53.913Z,100875.09
2018-08-17T12:54:28.037Z,100869.26
2018-08-17T12:56:54.724Z,100872.09
2018-08-17T12:59:24.029Z,100867.27
2018-08-17T13:01:53.236Z,100868.39
2018-08-17T13:04:20.828Z,100872.75
2018-08-17T13:06:48.373Z,100867.76
2018-08-17T13:09:15.060Z,100867.76
2018-08-17T13:11:48.595Z,100874.91
2018-08-17T13:14:15.347Z,100867.39
2018-08-17T13:16:42.628Z,100878.08
2018-08-17T13:19:09.638Z,100870.92
2018-08-17T13:21:38.473Z,100867.27
2018-08-17T13:24:05.257Z,100869.72
2018-08-17T13:26:32.092Z,100865.59
2018-08-17T13:28:58.840Z,100863.42
2018-08-17T13:31:26.708Z,100868.59
2018-08-17T13:33:53.992Z,100870.42
2018-08-17T13:36:20.828Z,100866.42
2018-08-17T13:38:48.484Z,100863.92
2018-08-17T13:41:16.160Z,100866.09
2018-08-17T13:43:43.748Z,100863.42
2018-08-17T13:46:11.989Z,100861.10
2018-08-17T13:48:39.618Z,100857.73
2018-08-17T13:51:06.196Z,100856.41
2018-08-17T13:53:32.906Z,100851.58
2018-08-17T13:56:00.781Z,100846.41
2018-08-17T13:58:28.512Z,100843.59
2018-08-17T14:00:55.153Z,100841.92
2018-08-17T14:03:22.204Z,100841.09
2018-08-17T14:05:49.820Z,100840.42
2018-08-17T14:08:16.568Z,100835.76
2018-08-17T14:10:43.197Z,100833.59
2018-08-17T14:13:09.868Z,100832.94
2018-08-17T14:15:37.453Z,100836.80
2018-08-17T14:18:04.173Z,100827.61
2018-08-17T14:20:30.817Z,100829.94
2018-08-17T14:22:57.454Z,100833.59
2018-08-17T14:25:25.021Z,100835.92
2018-08-17T14:27:52.986Z,100836.42
2018-08-17T14:30:19.641Z,100835.09
2018-08-17T14:32:47.132Z,100838.59
2018-08-17T14:35:14.183Z,100835.92
2018-08-17T14:37:42.089Z,100838.09
2018-08-17T14:40:09.245Z,100835.42
2018-08-17T14:42:35.930Z,100834.93
2018-08-17T14:45:02.589Z,100842.58
2018-08-17T14:47:29.256Z,100836.42
2018-08-17T14:49:55.932Z,100833.59
2018-08-17T14:52:23.741Z,100839.09
2018-08-17T14:54:51.282Z,100836.26
2018-08-17T14:57:18.864Z,100832.77
2018-08-17T14:59:46.492Z,100828.44
2018-08-17T15:02:13.157Z,100833.76
2018-08-17T15:04:40.743Z,100835.42
2018-08-17T15:07:08.278Z,100835.92
2018-08-17T15:09:34.944Z,100838.92
2018-08-17T15:12:02.471Z,100834.43
2018-08-17T15:14:30.108Z,100841.09
2018-08-17T15:16:56.745Z,100834.93
2018-08-17T15:19:24.430Z,100832.77
2018-08-17T15:21:53.055Z,100831.93
2018-08-17T15:24:19.737Z,100830.23
2018-08-17T15:26:46.416Z,100834.39
2018-08-17T15:29:13.920Z,100838.22
2018-08-17T15:31:41.676Z,100835.72
2018-08-17T15:34:08.322Z,100833.27
2018-08-17T15:36:35.925Z,100836.59
2018-08-17T15:39:04.830Z,100839.42
2018-08-17T15:41:32.508Z,100833.39
2018-08-17T15:43:59.170Z,100831.23
2018-08-17T15:46:26.893Z,100829.90
2018-08-17T15:48:54.768Z,100824.23
2018-08-17T15:51:22.088Z,100831.23
2018-08-17T15:53:49.525Z,100831.23
2018-08-17T15:56:17.132Z,100838.39
2018-08-17T15:58:43.804Z,100837.05
2018-08-17T16:01:11.942Z,100838.22
2018-08-17T16:03:38.660Z,100837.39
2018-08-17T16:06:05.324Z,100836.76
2018-08-17T16:08:35.642Z,100831.93
2018-08-17T16:11:02.574Z,100837.75
2018-08-17T16:13:29.257Z,100835.92
2018-08-17T16:15:56.233Z,100835.56
2018-08-17T16:18:23.795Z,100835.09
2018-08-17T16:20:50.443Z,100836.56
2018-08-17T16:23:17.121Z,100836.42
2018-08-17T16:25:43.763Z,100845.25
2018-08-17T16:28:12.464Z,100842.38
2018-08-17T16:30:39.996Z,100841.55
2018-08-17T16:33:06.660Z,100841.88
2018-08-17T16:35:33.688Z,100840.22
2018-08-17T16:38:01.237Z,100843.37
2018-08-17T16:40:30.749Z,100839.88
2018-08-17T16:42:58.405Z,100843.37
2018-08-17T16:45:25.903Z,100846.87
2018-08-17T16:47:53.701Z,100848.54
2018-08-17T16:50:20.412Z,100848.70
2018-08-17T16:52:47.089Z,100851.86
2018-08-17T16:55:13.784Z,100849.70
2018-08-17T16:57:41.357Z,100851.20
2018-08-17T17:00:09.409Z,100858.20
2018-08-17T17:02:36.994Z,100860.86
2018-08-17T17:05:05.359Z,100864.02
2018-08-17T17:07:33.056Z,100863.84
2018-08-17T17:10:00.580Z,100860.02
2018-08-17T17:12:28.054Z,100867.18
2018-08-17T17:15:05.742Z,100872.17
2018-08-17T17:17:33.337Z,100867.97
2018-08-17T17:20:01.028Z,100873.17
2018-08-17T17:22:27.692Z,100878.99
2018-08-17T17:24:58.139Z,100875.50
2018-08-17T17:27:25.724Z,100878.63
2018-08-17T17:29:53.855Z,100879.62
2018-08-17T17:32:22.612Z,100885.11
2018-08-17T17:34:49.414Z,100887.94
2018-08-17T17:37:15.937Z,100888.77
2018-08-17T17:39:42.596Z,100892.94
2018-08-17T17:42:10.056Z,100897.63
2018-08-17T17:44:36.761Z,100903.45
2018-08-17T17:47:04.484Z,100900.80
2018-08-17T17:49:32.112Z,100902.25
2018-08-17T17:51:58.777Z,100909.74
2018-08-17T17:54:25.822Z,100915.57
2018-08-17T17:57:02.961Z,100916.23
2018-08-17T17:59:30.432Z,100917.69
2018-08-17T18:01:57.101Z,100918.19
2018-08-17T18:04:29.372Z,100922.05
2018-08-17T18:06:56.667Z,100930.71
2018-08-17T18:09:24.172Z,100938.37
2018-08-17T18:11:53.104Z,100941.52
2018-08-17T18:14:20.808Z,100943.48
2018-08-17T18:16:47.517Z,100947.69
2018-08-17T18:19:14.381Z,100955.72
2018-08-17T18:21:42.061Z,100957.89
2018-08-17T18:24:09.800Z,100968.54
2018-08-17T18:26:37.348Z,100972.53
2018-08-17T18:29:05.257Z,100975.19
2018-08-17T18:31:31.988Z,100985.51
2018-08-17T18:33:59.469Z,100987.34
2018-08-17T18:36:27.108Z,101004.65
2018-08-17T18:38:53.792Z,100999.79
2018-08-17T18:41:21.342Z,101018.30
2018-08-17T18:43:48.896Z,101024.63
2018-08-17T18:46:16.508Z,101021.59
2018-08-17T18:48:44.112Z,101023.91
2018-08-17T18:51:10.801Z,101038.22
2018-08-17T18:53:38.373Z,101043.55
2018-08-17T18:56:05.028Z,101053.03
2018-08-17T18:58:32.689Z,101042.50
2018-08-17T19:01:00.372Z,101059.53
2018-08-17T19:03:28.064Z,101066.19
2018-08-17T19:05:55.431Z,101069.12
2018-08-17T19:08:23.045Z,101076.63
2018-08-17T19:10:50.501Z,101069.62
2018-08-17T19:13:17.156Z,101069.62
2018-08-17T19:15:50.077Z,101081.95
2018-08-17T19:18:17.945Z,101089.10
2018-08-17T19:20:45.522Z,101090.77
2018-08-17T19:23:12.204Z,101093.09
2018-08-17T19:25:40.353Z,101104.09
2018-08-17T19:28:08.276Z,101111.02
2018-08-17T19:30:35.684Z,101114.52
2018-08-17T19:33:08.066Z,101119.72
2018-08-17T19:35:35.845Z,101122.88
2018-08-17T19:38:02.505Z,101133.16
2018-08-17T19:40:29.277Z,101130.88
2018-08-17T19:42:55.938Z,101137.66
2018-08-17T19:45:23.778Z,101145.86
2018-08-17T19:47:50.485Z,101146.35
2018-08-17T19:50:17.173Z,101154.34
2018-08-17T19:52:43.838Z,101154.00
2018-08-17T19:55:11.410Z,101152.91
2018-08-17T19:57:38.044Z,101159.57
2018-08-17T20:00:05.786Z,101167.72
2018-08-17T20:02:33.403Z,101164.89
2018-08-17T20:05:00.044Z,101166.38
2018-08-17T20:07:26.709Z,101167.38
2018-08-17T20:09:54.241Z,101167.72
2018-08-17T20:12:20.896Z,101177.72
2018-08-17T20:14:47.557Z,101175.42
2018-08-17T20:17:14.328Z,101183.20
2018-08-17T20:19:48.172Z,101189.08
2018-08-17T20:22:17.678Z,101194.34
2018-08-17T20:24:44.536Z,101204.50
2018-08-17T20:27:11.985Z,101195.67
2018-08-17T20:29:38.733Z,101211.16
2018-08-17T20:32:05.588Z,101212.33
2018-08-17T20:34:42.660Z,101214.16
2018-08-17T20:37:09.671Z,101217.97
2018-08-17T20:39:37.388Z,101222.30
2018-08-17T20:42:04.160Z,101223.48
2018-08-17T20:44:30.840Z,101219.98
2018-08-17T20:46:57.509Z,101216.63
2018-08-17T20:49:25.277Z,101213.14
2018-08-17T20:51:57.995Z,101217.13
2018-08-17T20:54:24.708Z,101223.91
2018-08-17T20:56:53.133Z,101219.79
2018-08-17T20:59:20.660Z,101226.45
2018-08-17T21:01:48.301Z,101230.06
2018-08-17T21:04:15.929Z,101230.06
2018-08-17T21:06:43.409Z,101229.11
2018-08-17T21:09:11.565Z,101236.72
2018-08-17T21:11:38.256Z,101244.59
2018-08-17T21:14:05.151Z,101242.05
2018-08-17T21:16:32.004Z,101251.44
2018-08-17T21:18:58.881Z,101251.09
2018-08-17T21:21:25.607Z,101248.58
2018-08-17T21:23:52.223Z,101254.41
2018-08-17T21:26:18.860Z,101250.91
2018-08-17T21:28:46.434Z,101249.08
2018-08-17T21:31:13.964Z,101254.53
2018-08-17T21:33:42.090Z,101262.89
2018-08-17T21:36:08.718Z,101265.17
2018-08-17T21:38:35.425Z,101260.84
2018-08-17T21:41:02.064Z,101262.33
2018-08-17T21:43:28.804Z,101264.34
2018-08-17T21:45:59.145Z,101270.66
2018-08-17T21:48:27.228Z,101273.31
2018-08-17T21:50:53.936Z,101261.83
2018-08-17T21:53:20.592Z,101269.66
2018-08-17T21:55:47.236Z,101272.82
2018-08-17T21:58:13.897Z,101277.53
2018-08-17T22:00:42.327Z,101278.86
2018-08-17T22:03:12.628Z,101279.82
2018-08-17T22:05:39.272Z,101275.48
2018-08-17T22:08:05.967Z,101274.98
2018-08-17T22:10:32.627Z,101285.64
2018-08-17T22:12:59.346Z,101287.81
2018-08-17T22:15:27.327Z,101294.95
2018-08-17T22:17:54.066Z,101299.30
2018-08-17T22:20:20.717Z,101301.84
2018-08-17T22:22:47.386Z,101298.84
2018-08-17T22:25:15.475Z,101302.45
2018-08-17T22:27:42.737Z,101308.49
2018-08-17T22:30:13.457Z,101304.63
2018-08-17T22:32:42.029Z,101301.96
2018-08-17T22:35:09.533Z,101309.27
2018-08-17T22:37:37.034Z,101301.77
2018-08-17T22:40:04.363Z,101302.27
2018-08-17T22:42:31.059Z,101305.95
2018-08-17T22:44:58.637Z,101301.62
2018-08-17T22:47:28.003Z,101316.14
2018-08-17T22:49:55.735Z,101314.44
2018-08-17T22:52:22.394Z,101320.97
2018-08-17T22:54:54.878Z,101316.98
2018-08-17T22:57:23.369Z,101321.24
2018-08-17T23:00:00.300Z,101329.57
2018-08-17T23:02:26.999Z,101330.34
2018-08-17T23:04:53.759Z,101332.73
2018-08-17T23:07:20.452Z,101334.28
2018-08-17T23:09:47.108Z,101337.44
2018-08-17T23:12:14.749Z,101332.12
2018-08-17T23:14:42.057Z,101338.89
2018-08-17T23:17:09.565Z,101342.89
2018-08-17T23:19:36.261Z,101344.22
2018-08-17T23:22:03.052Z,101352.20
2018-08-17T23:24:30.535Z,101359.20
2018-08-17T23:26:57.276Z,101369.86
2018-08-17T23:29:23.917Z,101382.21
2018-08-17T23:31:50.585Z,101389.83
2018-08-17T23:34:18.046Z,101391.65
2018-08-17T23:36:44.688Z,101390.47
2018-08-17T23:39:13.176Z,101401.12
2018-08-17T23:41:42.260Z,101403.78
2018-08-17T23:44:08.896Z,101407.92
2018-08-17T23:46:35.537Z,101407.55
2018-08-17T23:49:02.248Z,101406.59
2018-08-17T23:51:28.905Z,101410.02
2018-08-17T23:53:56.769Z,101423.80
2018-08-17T23:56:23.436Z,101421.47
2018-08-17T23:58:50.091Z,101421.47
